createdAt,value
2018-03-11T00:00:55.950Z,991.11
2018-03-11T00:01:55.965Z,991.12
2018-03-11T00:02:55.988Z,991.09
2018-03-11T00:03:55.997Z,991.1
2018-03-11T00:04:56.014Z,991.05
2018-03-11T00:05:56.029Z,991.07
2018-03-11T00:06:56.047Z,991.1
2018-03-11T00:07:56.064Z,991.1
2018-03-11T00:08:56.080Z,991.03
2018-03-11T00:09:56.095Z,991.1
2018-03-11T00:10:56.113Z,991.08
2018-03-11T00:11:56.131Z,991.1
2018-03-11T00:12:56.147Z,991.09
2018-03-11T00:13:56.161Z,991.12
2018-03-11T00:14:56.177Z,991.11
2018-03-11T00:15:56.193Z,991.1
2018-03-11T00:16:56.209Z,991.08
2018-03-11T00:17:56.227Z,991.07
2018-03-11T00:18:56.244Z,991.09
2018-03-11T00:19:56.259Z,991.1
2018-03-11T00:20:56.275Z,991.12
2018-03-11T00:21:56.291Z,991.11
2018-03-11T00:22:56.308Z,991.11
2018-03-11T00:23:56.325Z,991.13
2018-03-11T00:24:56.343Z,991.15
2018-03-11T00:25:56.357Z,991.16
2018-03-11T00:26:56.372Z,991.15
2018-03-11T00:27:56.395Z,991.17
2018-03-11T00:28:56.405Z,991.2
2018-03-11T00:29:56.420Z,991.24
2018-03-11T00:30:56.442Z,991.24
2018-03-11T00:31:56.453Z,991.31
2018-03-11T00:32:56.520Z,991.26
2018-03-11T00:33:56.486Z,991.31
2018-03-11T00:34:56.507Z,991.31
2018-03-11T00:35:56.518Z,991.28
2018-03-11T00:36:56.535Z,991.26
2018-03-11T00:37:56.554Z,991.27
2018-03-11T00:38:56.566Z,991.26
2018-03-11T00:39:56.583Z,991.26
2018-03-11T00:40:56.599Z,991.25
2018-03-11T00:41:56.616Z,991.27
2018-03-11T00:42:56.631Z,991.26
2018-03-11T00:43:56.648Z,991.25
2018-03-11T00:44:56.666Z,991.23
2018-03-11T00:45:56.681Z,991.22
2018-03-11T00:46:56.697Z,991.25
2018-03-11T00:47:56.713Z,991.24
2018-03-11T00:48:56.728Z,991.23
2018-03-11T00:49:56.745Z,991.22
2018-03-11T00:50:56.763Z,991.17
2018-03-11T00:51:56.777Z,991.14
2018-03-11T00:52:56.793Z,991.14
2018-03-11T00:53:56.808Z,991.07
2018-03-11T00:54:56.827Z,991.06
2018-03-11T00:55:56.842Z,991.04
2018-03-11T00:56:56.858Z,991.03
2018-03-11T00:57:56.928Z,991.02
2018-03-11T00:58:56.888Z,991.05
2018-03-11T00:59:56.906Z,991.04
2018-03-11T01:00:56.920Z,991.03
2018-03-11T01:01:56.940Z,991.02
2018-03-11T01:02:56.954Z,990.99
2018-03-11T01:03:56.975Z,991.02
2018-03-11T01:04:56.986Z,991.02
2018-03-11T01:05:57.002Z,990.98
2018-03-11T01:06:57.019Z,990.99
2018-03-11T01:07:57.035Z,990.99
2018-03-11T01:08:57.050Z,990.95
2018-03-11T01:09:57.067Z,990.93
2018-03-11T01:10:57.084Z,990.88
2018-03-11T01:11:57.100Z,990.91
2018-03-11T01:12:57.114Z,990.93
2018-03-11T01:13:57.141Z,990.94
2018-03-11T01:14:57.146Z,990.94
2018-03-11T01:15:57.161Z,990.88
2018-03-11T01:16:57.178Z,990.9
2018-03-11T01:17:57.195Z,990.91
2018-03-11T01:18:57.210Z,990.9
2018-03-11T01:19:57.226Z,990.9
2018-03-11T01:20:57.243Z,990.86
2018-03-11T01:21:57.262Z,990.88
2018-03-11T01:22:57.275Z,990.88
2018-03-11T01:23:57.293Z,990.88
2018-03-11T01:24:57.307Z,990.84
2018-03-11T01:25:57.322Z,990.84
2018-03-11T01:26:57.339Z,990.77
2018-03-11T01:27:57.827Z,990.84
2018-03-11T01:28:57.370Z,990.79
2018-03-11T01:29:57.385Z,990.83
2018-03-11T01:30:57.401Z,990.8
2018-03-11T01:31:57.419Z,990.8
2018-03-11T01:32:57.433Z,990.77
2018-03-11T01:33:57.449Z,990.76
2018-03-11T01:34:57.531Z,990.72
2018-03-11T01:35:57.482Z,990.69
2018-03-11T01:36:57.499Z,990.65
2018-03-11T01:37:57.512Z,990.68
2018-03-11T01:38:57.529Z,990.68
2018-03-11T01:39:57.548Z,990.66
2018-03-11T01:40:57.561Z,990.72
2018-03-11T01:41:57.576Z,990.71
2018-03-11T01:42:57.593Z,990.7
2018-03-11T01:43:57.608Z,990.71
2018-03-11T01:44:57.623Z,990.72
2018-03-11T01:45:57.640Z,990.71
2018-03-11T01:46:57.655Z,990.75
2018-03-11T01:47:57.672Z,990.74
2018-03-11T01:48:57.686Z,990.73
2018-03-11T01:49:57.702Z,990.72
2018-03-11T01:50:57.719Z,990.7
2018-03-11T01:51:57.735Z,990.71
2018-03-11T01:52:57.750Z,990.69
2018-03-11T01:53:57.767Z,990.68
2018-03-11T01:54:57.782Z,990.66
2018-03-11T01:55:57.797Z,990.71
2018-03-11T01:56:57.814Z,990.7
2018-03-11T01:57:57.854Z,990.71
2018-03-11T01:58:57.849Z,990.68
2018-03-11T01:59:57.860Z,990.63
2018-03-11T02:00:57.875Z,990.7
2018-03-11T02:01:57.892Z,990.69
2018-03-11T02:02:57.907Z,990.7
2018-03-11T02:03:57.922Z,990.69
2018-03-11T02:04:57.938Z,990.75
2018-03-11T02:05:57.955Z,990.72
2018-03-11T02:06:57.970Z,990.74
2018-03-11T02:07:57.985Z,990.69
2018-03-11T02:08:58.000Z,990.75
2018-03-11T02:09:58.018Z,990.75
2018-03-11T02:10:58.033Z,990.73
2018-03-11T02:11:58.047Z,990.73
2018-03-11T02:12:58.064Z,990.72
2018-03-11T02:13:58.080Z,990.7
2018-03-11T02:14:58.096Z,990.7
2018-03-11T02:15:58.111Z,990.74
2018-03-11T02:16:58.127Z,990.74
2018-03-11T02:17:58.142Z,990.65
2018-03-11T02:18:58.157Z,990.66
2018-03-11T02:19:58.174Z,990.69
2018-03-11T02:20:58.191Z,990.67
2018-03-11T02:21:58.204Z,990.66
2018-03-11T02:22:58.227Z,990.65
2018-03-11T02:23:58.236Z,990.65
2018-03-11T02:24:58.253Z,990.62
2018-03-11T02:25:58.268Z,990.61
2018-03-11T02:26:58.282Z,990.55
2018-03-11T02:27:58.298Z,990.6
2018-03-11T02:28:58.313Z,990.58
2018-03-11T02:29:58.330Z,990.53
2018-03-11T02:30:58.345Z,990.53
2018-03-11T02:31:58.361Z,990.52
2018-03-11T02:32:58.375Z,990.48
2018-03-11T02:33:58.394Z,990.5
2018-03-11T02:34:58.409Z,990.5
2018-03-11T02:35:58.424Z,990.45
2018-03-11T02:36:58.438Z,990.47
2018-03-11T02:37:58.455Z,990.42
2018-03-11T02:38:58.468Z,990.42
2018-03-11T02:39:58.484Z,990.44
2018-03-11T02:40:58.498Z,990.41
2018-03-11T02:41:58.523Z,990.43
2018-03-11T02:42:58.531Z,990.35
2018-03-11T02:43:58.547Z,990.37
2018-03-11T02:44:58.563Z,990.35
2018-03-11T02:45:58.578Z,990.29
2018-03-11T02:46:58.600Z,990.26
2018-03-11T02:47:58.615Z,990.29
2018-03-11T02:48:58.627Z,990.28
2018-03-11T02:49:58.639Z,990.26
2018-03-11T02:50:58.654Z,990.29
2018-03-11T02:51:58.670Z,990.32
2018-03-11T02:52:58.685Z,990.3
2018-03-11T02:53:58.701Z,990.28
2018-03-11T02:54:58.715Z,990.3
2018-03-11T02:55:58.734Z,990.29
2018-03-11T02:56:58.748Z,990.26
2018-03-11T02:57:58.763Z,990.22
2018-03-11T02:58:58.785Z,990.24
2018-03-11T02:59:58.793Z,990.23
2018-03-11T03:00:58.812Z,990.25
2018-03-11T03:01:58.824Z,990.22
2018-03-11T03:02:58.840Z,990.2
2018-03-11T03:03:58.859Z,990.19
2018-03-11T03:04:58.869Z,990.21
2018-03-11T03:05:58.886Z,990.2
2018-03-11T03:06:58.901Z,990.22
2018-03-11T03:07:58.919Z,990.21
2018-03-11T03:08:58.938Z,990.25
2018-03-11T03:09:58.946Z,990.22
2018-03-11T03:10:58.964Z,990.27
2018-03-11T03:11:58.977Z,990.24
2018-03-11T03:12:58.999Z,990.24
2018-03-11T03:13:59.062Z,990.19
2018-03-11T03:14:59.025Z,990.19
2018-03-11T03:15:59.039Z,990.21
2018-03-11T03:16:59.054Z,990.2
2018-03-11T03:17:59.070Z,990.17
2018-03-11T03:18:59.086Z,990.17
2018-03-11T03:19:59.100Z,990.16
2018-03-11T03:20:59.115Z,990.16
2018-03-11T03:21:59.131Z,990.14
2018-03-11T03:22:59.146Z,990.1
2018-03-11T03:23:59.162Z,990.1
2018-03-11T03:24:59.178Z,990.08
2018-03-11T03:25:59.192Z,990.09
2018-03-11T03:26:59.207Z,990.06
2018-03-11T03:27:59.231Z,990.05
2018-03-11T03:28:59.287Z,990.05
2018-03-11T03:29:59.254Z,990.04
2018-03-11T03:30:59.269Z,990.04
2018-03-11T03:31:59.284Z,990.02
2018-03-11T03:32:59.298Z,990.04
2018-03-11T03:33:59.314Z,990.03
2018-03-11T03:34:59.337Z,990.07
2018-03-11T03:35:59.344Z,990.03
2018-03-11T03:36:59.360Z,990.03
2018-03-11T03:37:59.375Z,990.01
2018-03-11T03:38:59.490Z,990.02
2018-03-11T03:39:59.414Z,990.04
2018-03-11T03:40:59.421Z,990.01
2018-03-11T03:41:59.439Z,990
2018-03-11T03:42:59.450Z,989.95
2018-03-11T03:43:59.467Z,989.96
2018-03-11T03:44:59.482Z,989.95
2018-03-11T03:45:59.496Z,989.94
2018-03-11T03:46:59.512Z,989.88
2018-03-11T03:47:59.527Z,989.89
2018-03-11T03:48:59.542Z,989.83
2018-03-11T03:49:59.573Z,989.84
2018-03-11T03:50:59.576Z,989.77
2018-03-11T03:51:59.588Z,989.86
2018-03-11T03:52:59.601Z,989.84
2018-03-11T03:53:59.617Z,989.79
2018-03-11T03:54:59.633Z,989.8
2018-03-11T03:55:59.649Z,989.77
2018-03-11T03:56:59.663Z,989.76
2018-03-11T03:57:59.677Z,989.75
2018-03-11T03:58:59.692Z,989.75
2018-03-11T03:59:59.707Z,989.72
2018-03-11T04:00:59.723Z,989.68
2018-03-11T04:01:59.739Z,989.75
2018-03-11T04:02:59.754Z,989.74
2018-03-11T04:03:59.768Z,989.75
2018-03-11T04:04:59.785Z,989.75
2018-03-11T04:05:59.798Z,989.74
2018-03-11T04:06:59.813Z,989.78
2018-03-11T04:07:59.828Z,989.75
2018-03-11T04:08:59.843Z,989.72
2018-03-11T04:09:59.862Z,989.68
2018-03-11T04:10:59.874Z,989.67
2018-03-11T04:11:59.887Z,989.65
2018-03-11T04:12:59.907Z,989.61
2018-03-11T04:13:59.970Z,989.57
2018-03-11T04:14:59.933Z,989.55
2018-03-11T04:15:59.948Z,989.52
2018-03-11T04:16:59.963Z,989.55
2018-03-11T04:17:59.978Z,989.53
2018-03-11T04:18:59.992Z,989.54
2018-03-11T04:20:00.008Z,989.53
2018-03-11T04:21:00.025Z,989.64
2018-03-11T04:22:00.039Z,989.53
2018-03-11T04:23:00.053Z,989.54
2018-03-11T04:24:00.069Z,989.55
2018-03-11T04:25:00.084Z,989.51
2018-03-11T04:26:00.099Z,989.51
2018-03-11T04:27:00.114Z,989.48
2018-03-11T04:28:00.132Z,989.49
2018-03-11T04:29:00.144Z,989.46
2018-03-11T04:30:00.160Z,989.46
2018-03-11T04:31:00.174Z,989.48
2018-03-11T04:32:00.190Z,989.46
2018-03-11T04:33:00.206Z,989.45
2018-03-11T04:34:00.218Z,989.45
2018-03-11T04:35:00.234Z,989.41
2018-03-11T04:36:00.248Z,989.44
2018-03-11T04:37:00.263Z,989.4
2018-03-11T04:38:00.278Z,989.39
2018-03-11T04:39:00.294Z,989.39
2018-03-11T04:40:00.310Z,989.41
2018-03-11T04:41:00.322Z,989.39
2018-03-11T04:42:00.344Z,989.37
2018-03-11T04:43:00.353Z,989.36
2018-03-11T04:44:00.372Z,989.37
2018-03-11T04:45:00.383Z,989.36
2018-03-11T04:46:00.396Z,989.38
2018-03-11T04:47:00.413Z,989.39
2018-03-11T04:48:00.427Z,989.39
2018-03-11T04:49:00.442Z,989.35
2018-03-11T04:50:00.464Z,989.36
2018-03-11T04:51:00.470Z,989.37
2018-03-11T04:52:00.493Z,989.37
2018-03-11T04:53:00.500Z,989.36
2018-03-11T04:54:00.515Z,989.34
2018-03-11T04:55:00.530Z,989.36
2018-03-11T04:56:00.548Z,989.33
2018-03-11T04:57:00.563Z,989.29
2018-03-11T04:58:00.575Z,989.28
2018-03-11T04:59:00.589Z,989.28
2018-03-11T05:00:00.605Z,989.27
2018-03-11T05:01:00.618Z,989.24
2018-03-11T05:02:00.635Z,989.26
2018-03-11T05:03:00.648Z,989.27
2018-03-11T05:04:00.668Z,989.24
2018-03-11T05:05:00.678Z,989.26
2018-03-11T05:06:00.695Z,989.25
2018-03-11T05:07:00.706Z,989.22
2018-03-11T05:08:00.723Z,989.24
2018-03-11T05:09:00.737Z,989.24
2018-03-11T05:10:00.751Z,989.21
2018-03-11T05:11:00.767Z,989.24
2018-03-11T05:12:00.787Z,989.21
2018-03-11T05:13:00.795Z,989.25
2018-03-11T05:14:00.814Z,989.23
2018-03-11T05:15:00.824Z,989.27
2018-03-11T05:16:00.839Z,989.24
2018-03-11T05:17:00.857Z,989.23
2018-03-11T05:18:00.868Z,989.21
2018-03-11T05:19:00.884Z,989.26
2018-03-11T05:20:00.906Z,989.26
2018-03-11T05:21:00.914Z,989.21
2018-03-11T05:22:00.931Z,989.2
2018-03-11T05:23:00.945Z,989.2
2018-03-11T05:24:00.956Z,989.21
2018-03-11T05:25:00.972Z,989.17
2018-03-11T05:26:00.990Z,989.19
2018-03-11T05:27:01.001Z,989.18
2018-03-11T05:28:01.021Z,989.18
2018-03-11T05:29:01.031Z,989.14
2018-03-11T05:30:01.056Z,989.17
2018-03-11T05:31:01.060Z,989.15
2018-03-11T05:32:01.075Z,989.19
2018-03-11T05:33:01.134Z,989.18
2018-03-11T05:34:01.112Z,989.18
2018-03-11T05:35:01.121Z,989.22
2018-03-11T05:36:01.138Z,989.2
2018-03-11T05:37:01.148Z,989.2
2018-03-11T05:38:01.167Z,989.1
2018-03-11T05:39:01.177Z,989.13
2018-03-11T05:40:01.191Z,989.14
2018-03-11T05:41:01.205Z,989.14
2018-03-11T05:42:01.230Z,989.1
2018-03-11T05:43:01.239Z,989.12
2018-03-11T05:44:01.259Z,989.15
2018-03-11T05:45:01.265Z,989.14
2018-03-11T05:46:01.279Z,989.12
2018-03-11T05:47:01.293Z,989.15
2018-03-11T05:48:01.309Z,989.15
2018-03-11T05:49:01.325Z,989.14
2018-03-11T05:50:01.362Z,989.14
2018-03-11T05:51:01.356Z,989.13
2018-03-11T05:52:01.372Z,989.13
2018-03-11T05:53:01.396Z,989.11
2018-03-11T05:54:01.401Z,989.1
2018-03-11T05:55:01.410Z,989.09
2018-03-11T05:56:01.426Z,989.11
2018-03-11T05:57:01.451Z,989.11
2018-03-11T05:58:01.456Z,989.12
2018-03-11T05:59:01.469Z,989.15
2018-03-11T06:00:01.485Z,989.14
2018-03-11T06:01:01.502Z,989.2
2018-03-11T06:02:01.514Z,989.15
2018-03-11T06:03:01.531Z,989.19
2018-03-11T06:04:01.544Z,989.22
2018-03-11T06:05:01.558Z,989.17
2018-03-11T06:06:01.586Z,989.21
2018-03-11T06:07:01.588Z,989.16
2018-03-11T06:08:01.607Z,989.22
2018-03-11T06:09:01.617Z,989.17
2018-03-11T06:10:01.631Z,989.23
2018-03-11T06:11:01.647Z,989.23
2018-03-11T06:12:01.664Z,989.24
2018-03-11T06:13:01.676Z,989.26
2018-03-11T06:14:01.690Z,989.28
2018-03-11T06:15:01.704Z,989.3
2018-03-11T06:16:01.720Z,989.3
2018-03-11T06:17:01.735Z,989.26
2018-03-11T06:18:01.749Z,989.18
2018-03-11T06:19:01.778Z,989.15
2018-03-11T06:20:01.784Z,989.19
2018-03-11T06:21:01.792Z,989.11
2018-03-11T06:22:01.810Z,989.13
2018-03-11T06:23:01.828Z,989.09
2018-03-11T06:24:01.837Z,989.12
2018-03-11T06:25:01.857Z,989.15
2018-03-11T06:26:01.868Z,989.16
2018-03-11T06:27:01.881Z,989.2
2018-03-11T06:28:02.140Z,989.18
2018-03-11T06:29:01.910Z,989.19
2018-03-11T06:30:01.981Z,989.15
2018-03-11T06:31:01.939Z,989.13
2018-03-11T06:32:01.970Z,989.1
2018-03-11T06:33:01.970Z,989.13
2018-03-11T06:34:01.984Z,989.11
2018-03-11T06:35:01.999Z,989.08
2018-03-11T06:36:02.013Z,989.13
2018-03-11T06:37:02.027Z,989.11
2018-03-11T06:38:02.047Z,989.16
2018-03-11T06:39:02.057Z,989.17
2018-03-11T06:40:02.124Z,989.19
2018-03-11T06:41:02.093Z,989.27
2018-03-11T06:42:02.101Z,989.25
2018-03-11T06:43:02.116Z,989.24
2018-03-11T06:44:02.133Z,989.28
2018-03-11T06:45:02.146Z,989.24
2018-03-11T06:46:02.160Z,989.2
2018-03-11T06:47:02.179Z,989.21
2018-03-11T06:48:02.199Z,989.15
2018-03-11T06:49:02.208Z,989.15
2018-03-11T06:50:02.226Z,989.11
2018-03-11T06:51:02.235Z,989.16
2018-03-11T06:52:02.248Z,989.15
2018-03-11T06:53:02.265Z,989.12
2018-03-11T06:54:02.280Z,989.11
2018-03-11T06:55:02.345Z,989.13
2018-03-11T06:56:02.309Z,989.11
2018-03-11T06:57:02.330Z,989.05
2018-03-11T06:58:02.339Z,989.07
2018-03-11T06:59:02.354Z,989
2018-03-11T07:00:02.398Z,988.99
2018-03-11T07:01:02.384Z,989
2018-03-11T07:02:02.418Z,988.99
2018-03-11T07:03:02.414Z,988.96
2018-03-11T07:04:02.439Z,988.98
2018-03-11T07:05:02.446Z,988.94
2018-03-11T07:06:02.462Z,988.93
2018-03-11T07:07:02.473Z,988.96
2018-03-11T07:08:02.488Z,988.99
2018-03-11T07:09:02.502Z,989
2018-03-11T07:10:02.517Z,989.04
2018-03-11T07:11:02.531Z,989.04
2018-03-11T07:12:02.548Z,989
2018-03-11T07:13:02.563Z,989
2018-03-11T07:14:02.577Z,989
2018-03-11T07:15:02.642Z,988.98
2018-03-11T07:16:02.607Z,989.04
2018-03-11T07:17:02.623Z,989
2018-03-11T07:18:02.636Z,989
2018-03-11T07:19:02.652Z,988.96
2018-03-11T07:20:02.668Z,988.99
2018-03-11T07:21:02.682Z,989.01
2018-03-11T07:22:02.701Z,989.04
2018-03-11T07:23:02.712Z,989.02
2018-03-11T07:24:02.731Z,988.97
2018-03-11T07:25:02.793Z,988.99
2018-03-11T07:26:02.757Z,988.97
2018-03-11T07:27:02.775Z,988.98
2018-03-11T07:28:02.789Z,989.02
2018-03-11T07:29:02.802Z,989.01
2018-03-11T07:30:02.826Z,989.04
2018-03-11T07:31:02.833Z,989.03
2018-03-11T07:32:02.847Z,989
2018-03-11T07:33:02.864Z,989
2018-03-11T07:34:02.880Z,989.01
2018-03-11T07:35:02.893Z,989.07
2018-03-11T07:36:02.923Z,989.07
2018-03-11T07:37:02.923Z,989.1
2018-03-11T07:38:02.940Z,989.1
2018-03-11T07:39:02.954Z,989.09
2018-03-11T07:40:02.970Z,989.04
2018-03-11T07:41:02.986Z,989.07
2018-03-11T07:42:03.002Z,989.02
2018-03-11T07:43:03.017Z,989.1
2018-03-11T07:44:03.029Z,989.11
2018-03-11T07:45:03.046Z,989.1
2018-03-11T07:46:03.064Z,989.13
2018-03-11T07:47:03.076Z,989.15
2018-03-11T07:48:03.143Z,989.16
2018-03-11T07:49:03.111Z,989.15
2018-03-11T07:50:03.122Z,989.16
2018-03-11T07:51:03.136Z,989.2
2018-03-11T07:52:03.155Z,989.16
2018-03-11T07:53:03.167Z,989.18
2018-03-11T07:54:03.184Z,989.16
2018-03-11T07:55:03.198Z,989.2
2018-03-11T07:56:03.214Z,989.15
2018-03-11T07:57:03.228Z,989.16
2018-03-11T07:58:03.244Z,989.16
2018-03-11T07:59:03.264Z,989.18
2018-03-11T08:00:03.274Z,989.17
2018-03-11T08:01:03.290Z,989.14
2018-03-11T08:02:03.304Z,989.13
2018-03-11T08:03:03.320Z,989.08
2018-03-11T08:04:03.342Z,989.07
2018-03-11T08:05:03.353Z,989.07
2018-03-11T08:06:03.371Z,989.09
2018-03-11T08:07:03.382Z,989.07
2018-03-11T08:08:03.400Z,989.04
2018-03-11T08:09:03.412Z,989.05
2018-03-11T08:10:03.428Z,989.05
2018-03-11T08:11:03.445Z,989.02
2018-03-11T08:12:03.458Z,989.04
2018-03-11T08:13:03.475Z,988.94
2018-03-11T08:14:03.490Z,988.98
2018-03-11T08:15:03.506Z,988.93
2018-03-11T08:16:03.524Z,988.92
2018-03-11T08:17:03.537Z,988.9
2018-03-11T08:18:03.552Z,988.86
2018-03-11T08:19:03.569Z,988.9
2018-03-11T08:20:03.583Z,988.92
2018-03-11T08:21:03.598Z,988.86
2018-03-11T08:22:03.614Z,988.89
2018-03-11T08:23:03.630Z,988.9
2018-03-11T08:24:03.654Z,988.9
2018-03-11T08:25:03.677Z,988.86
2018-03-11T08:26:03.678Z,988.84
2018-03-11T08:27:03.694Z,988.82
2018-03-11T08:28:03.708Z,988.79
2018-03-11T08:29:03.726Z,988.77
2018-03-11T08:30:03.740Z,988.75
2018-03-11T08:31:03.754Z,988.74
2018-03-11T08:32:03.772Z,988.72
2018-03-11T08:33:03.787Z,988.75
2018-03-11T08:34:03.800Z,988.7
2018-03-11T08:35:03.817Z,988.72
2018-03-11T08:36:03.841Z,988.72
2018-03-11T08:37:03.850Z,988.7
2018-03-11T08:38:03.864Z,988.67
2018-03-11T08:39:03.879Z,988.69
2018-03-11T08:40:03.896Z,988.69
2018-03-11T08:41:03.911Z,988.71
2018-03-11T08:42:03.926Z,988.7
2018-03-11T08:43:03.943Z,988.67
2018-03-11T08:44:03.959Z,988.68
2018-03-11T08:45:03.974Z,988.68
2018-03-11T08:46:03.989Z,988.62
2018-03-11T08:47:04.007Z,988.58
2018-03-11T08:48:04.022Z,988.56
2018-03-11T08:49:04.037Z,988.52
2018-03-11T08:50:04.054Z,988.52
2018-03-11T08:51:04.070Z,988.5
2018-03-11T08:52:04.090Z,988.49
2018-03-11T08:53:04.103Z,988.46
2018-03-11T08:54:04.118Z,988.49
2018-03-11T08:55:04.139Z,988.48
2018-03-11T08:56:04.148Z,988.51
2018-03-11T08:57:04.165Z,988.47
2018-03-11T08:58:04.181Z,988.46
2018-03-11T08:59:04.198Z,988.4
2018-03-11T09:00:04.213Z,988.41
2018-03-11T09:01:04.228Z,988.37
2018-03-11T09:02:04.245Z,988.43
2018-03-11T09:03:04.264Z,988.42
2018-03-11T09:04:04.277Z,988.39
2018-03-11T09:05:04.297Z,988.38
2018-03-11T09:06:04.310Z,988.36
2018-03-11T09:07:04.332Z,988.37
2018-03-11T09:08:04.341Z,988.3
2018-03-11T09:09:04.359Z,988.29
2018-03-11T09:10:04.375Z,988.28
2018-03-11T09:11:04.389Z,988.3
2018-03-11T09:12:04.406Z,988.32
2018-03-11T09:13:04.423Z,988.29
2018-03-11T09:14:04.442Z,988.3
2018-03-11T09:15:04.458Z,988.3
2018-03-11T09:16:04.472Z,988.31
2018-03-11T09:17:04.488Z,988.32
2018-03-11T09:18:04.503Z,988.31
2018-03-11T09:19:04.528Z,988.34
2018-03-11T09:20:04.536Z,988.25
2018-03-11T09:21:04.553Z,988.21
2018-03-11T09:22:04.568Z,988.24
2018-03-11T09:23:04.584Z,988.27
2018-03-11T09:24:04.601Z,988.28
2018-03-11T09:25:04.619Z,988.28
2018-03-11T09:26:04.633Z,988.29
2018-03-11T09:27:04.650Z,988.27
2018-03-11T09:28:04.665Z,988.27
2018-03-11T09:29:04.684Z,988.28
2018-03-11T09:30:04.699Z,988.27
2018-03-11T09:31:04.715Z,988.29
2018-03-11T09:32:04.733Z,988.33
2018-03-11T09:33:04.747Z,988.34
2018-03-11T09:34:04.764Z,988.31
2018-03-11T09:35:04.783Z,988.3
2018-03-11T09:36:04.847Z,988.27
2018-03-11T09:37:04.821Z,988.29
2018-03-11T09:38:04.834Z,988.33
2018-03-11T09:39:04.848Z,988.29
2018-03-11T09:40:04.867Z,988.35
2018-03-11T09:41:04.879Z,988.31
2018-03-11T09:42:04.901Z,988.34
2018-03-11T09:43:04.914Z,988.34
2018-03-11T09:44:04.929Z,988.32
2018-03-11T09:45:04.946Z,988.41
2018-03-11T09:46:04.963Z,988.41
2018-03-11T09:47:04.980Z,988.39
2018-03-11T09:48:04.995Z,988.41
2018-03-11T09:49:05.013Z,988.47
2018-03-11T09:50:05.033Z,988.5
2018-03-11T09:51:05.100Z,988.46
2018-03-11T09:52:05.062Z,988.45
2018-03-11T09:53:05.079Z,988.47
2018-03-11T09:54:05.097Z,988.42
2018-03-11T09:55:05.112Z,988.4
2018-03-11T09:56:05.179Z,988.44
2018-03-11T09:57:05.148Z,988.39
2018-03-11T09:58:05.162Z,988.37
2018-03-11T09:59:05.182Z,988.33
2018-03-11T10:00:05.198Z,988.33
2018-03-11T10:01:05.215Z,988.29
2018-03-11T10:02:05.231Z,988.25
2018-03-11T10:03:05.251Z,988.21
2018-03-11T10:04:05.265Z,988.24
2018-03-11T10:05:05.283Z,988.15
2018-03-11T10:06:05.300Z,988.14
2018-03-11T10:07:05.321Z,988.12
2018-03-11T10:08:05.334Z,988.08
2018-03-11T10:09:05.352Z,988.1
2018-03-11T10:10:05.383Z,988.12
2018-03-11T10:11:05.385Z,988.13
2018-03-11T10:12:05.403Z,988.1
2018-03-11T10:13:05.420Z,988.03
2018-03-11T10:14:05.437Z,987.97
2018-03-11T10:15:05.455Z,987.94
2018-03-11T10:16:05.472Z,987.96
2018-03-11T10:17:05.490Z,987.93
2018-03-11T10:18:05.509Z,987.89
2018-03-11T10:19:05.525Z,987.96
2018-03-11T10:20:05.541Z,987.93
2018-03-11T10:21:05.557Z,987.95
2018-03-11T10:22:05.577Z,987.95
2018-03-11T10:23:05.594Z,987.92
2018-03-11T10:24:05.611Z,987.92
2018-03-11T10:25:05.630Z,987.87
2018-03-11T10:26:05.647Z,987.86
2018-03-11T10:27:05.672Z,987.88
2018-03-11T10:28:05.681Z,987.87
2018-03-11T10:29:05.699Z,987.79
2018-03-11T10:30:05.779Z,987.81
2018-03-11T10:31:05.735Z,987.83
2018-03-11T10:32:05.751Z,987.84
2018-03-11T10:33:05.770Z,987.89
2018-03-11T10:34:05.789Z,987.83
2018-03-11T10:35:05.805Z,987.88
2018-03-11T10:36:05.823Z,987.87
2018-03-11T10:37:05.860Z,987.87
2018-03-11T10:38:05.868Z,987.82
2018-03-11T10:39:05.881Z,987.87
2018-03-11T10:40:05.913Z,987.9
2018-03-11T10:41:05.918Z,987.9
2018-03-11T10:42:05.931Z,987.9
2018-03-11T10:43:05.949Z,987.87
2018-03-11T10:44:05.966Z,987.9
2018-03-11T10:45:05.987Z,987.85
2018-03-11T10:46:06.003Z,987.89
2018-03-11T10:47:06.022Z,987.9
2018-03-11T10:48:06.039Z,987.87
2018-03-11T10:49:06.090Z,987.83
2018-03-11T10:50:06.077Z,987.77
2018-03-11T10:51:06.095Z,987.8
2018-03-11T10:52:06.114Z,987.77
2018-03-11T10:53:06.131Z,987.78
2018-03-11T10:54:06.150Z,987.76
2018-03-11T10:55:06.169Z,987.75
2018-03-11T10:56:06.187Z,987.71
2018-03-11T10:57:06.206Z,987.72
2018-03-11T10:58:06.225Z,987.7
2018-03-11T10:59:06.243Z,987.69
2018-03-11T11:00:06.261Z,987.66
2018-03-11T11:01:06.280Z,987.61
2018-03-11T11:02:06.299Z,987.54
2018-03-11T11:03:06.320Z,987.51
2018-03-11T11:04:06.336Z,987.55
2018-03-11T11:05:06.354Z,987.5
2018-03-11T11:06:06.373Z,987.52
2018-03-11T11:07:06.443Z,987.56
2018-03-11T11:08:06.411Z,987.56
2018-03-11T11:09:06.428Z,987.56
2018-03-11T11:10:06.448Z,987.56
2018-03-11T11:11:06.467Z,987.53
2018-03-11T11:12:06.485Z,987.54
2018-03-11T11:13:06.504Z,987.5
2018-03-11T11:14:06.524Z,987.54
2018-03-11T11:15:06.542Z,987.52
2018-03-11T11:16:06.562Z,987.53
2018-03-11T11:17:06.581Z,987.55
2018-03-11T11:18:06.706Z,987.51
2018-03-11T11:19:06.619Z,987.5
2018-03-11T11:20:06.637Z,987.46
2018-03-11T11:21:06.658Z,987.49
2018-03-11T11:22:06.676Z,987.52
2018-03-11T11:23:06.696Z,987.48
2018-03-11T11:24:06.717Z,987.48
2018-03-11T11:25:06.736Z,987.47
2018-03-11T11:26:06.755Z,987.43
2018-03-11T11:27:06.773Z,987.39
2018-03-11T11:28:06.794Z,987.36
2018-03-11T11:29:06.939Z,987.36
2018-03-11T11:30:06.830Z,987.4
2018-03-11T11:31:06.851Z,987.34
2018-03-11T11:32:06.927Z,987.28
2018-03-11T11:33:06.890Z,987.24
2018-03-11T11:34:06.909Z,987.18
2018-03-11T11:35:07.008Z,987.16
2018-03-11T11:36:06.950Z,987.09
2018-03-11T11:37:06.970Z,987.07
2018-03-11T11:38:07.024Z,987.01
2018-03-11T11:39:07.009Z,986.97
2018-03-11T11:40:07.029Z,986.96
2018-03-11T11:41:07.047Z,986.92
2018-03-11T11:42:07.067Z,986.91
2018-03-11T11:43:07.099Z,986.87
2018-03-11T11:44:07.106Z,986.91
2018-03-11T11:45:07.126Z,986.85
2018-03-11T11:46:07.173Z,986.8
2018-03-11T11:47:07.217Z,986.79
2018-03-11T11:48:07.187Z,986.69
2018-03-11T11:49:07.217Z,986.67
2018-03-11T11:50:07.235Z,986.6
2018-03-11T11:51:07.247Z,986.51
2018-03-11T11:52:07.267Z,986.46
2018-03-11T11:53:07.287Z,986.46
2018-03-11T11:54:07.308Z,986.36
2018-03-11T11:55:07.326Z,986.33
2018-03-11T11:56:07.349Z,986.29
2018-03-11T11:57:07.368Z,986.29
2018-03-11T11:58:07.444Z,986.29
2018-03-11T11:59:07.409Z,986.24
2018-03-11T12:00:07.426Z,986.19
2018-03-11T12:01:07.454Z,986.15
2018-03-11T12:02:07.468Z,986.1
2018-03-11T12:03:07.487Z,986.13
2018-03-11T12:04:07.508Z,986.11
2018-03-11T12:05:07.529Z,986.03
2018-03-11T12:06:07.550Z,986.09
2018-03-11T12:07:07.613Z,986.1
2018-03-11T12:08:07.591Z,986.12
2018-03-11T12:09:07.610Z,986.12
2018-03-11T12:10:07.630Z,986.13
2018-03-11T12:11:07.651Z,986.14
2018-03-11T12:12:07.729Z,986.16
2018-03-11T12:13:07.693Z,986.19
2018-03-11T12:14:07.713Z,986.2
2018-03-11T12:15:07.734Z,986.24
2018-03-11T12:16:07.754Z,986.26
2018-03-11T12:17:07.784Z,986.26
2018-03-11T12:18:07.795Z,986.29
2018-03-11T12:19:07.814Z,986.25
2018-03-11T12:20:07.836Z,986.22
2018-03-11T12:21:07.859Z,986.2
2018-03-11T12:22:07.877Z,986.19
2018-03-11T12:23:07.898Z,986.16
2018-03-11T12:24:07.919Z,986.15
2018-03-11T12:25:07.944Z,986.1
2018-03-11T12:26:07.962Z,986.16
2018-03-11T12:27:07.982Z,986.18
2018-03-11T12:28:08.009Z,986.19
2018-03-11T12:29:08.023Z,986.17
2018-03-11T12:30:08.043Z,986.13
2018-03-11T12:31:08.066Z,986.12
2018-03-11T12:32:08.086Z,986.05
2018-03-11T12:33:08.108Z,986.02